createdAt,value
2023-01-29T00:02:31.868Z,99.60
2023-01-29T00:07:35.064Z,99.30
2023-01-29T00:12:38.404Z,99.38
2023-01-29T00:17:43.278Z,99.07
2023-01-29T00:22:46.487Z,99.61
2023-01-29T00:27:50.394Z,99.47
2023-01-29T00:32:55.166Z,99.67
2023-01-29T00:37:58.850Z,99.77
2023-01-29T00:43:19.475Z,99.05
2023-01-29T00:48:24.337Z,99.22
2023-01-29T00:53:27.654Z,99.96
2023-01-29T00:58:34.464Z,99.68
2023-01-29T01:03:42.276Z,99.93
2023-01-29T01:09:02.763Z,99.92
2023-01-29T01:14:06.207Z,99.03
2023-01-29T01:19:11.633Z,99.63
2023-01-29T01:24:15.140Z,99.22
2023-01-29T01:29:18.343Z,99.37
2023-01-29T01:34:23.368Z,98.54
2023-01-29T01:39:27.005Z,98.35
2023-01-29T01:44:57.116Z,99.03
2023-01-29T01:50:08.955Z,98.15
2023-01-29T01:55:15.835Z,98.06
2023-01-29T02:00:21.945Z,98.02
2023-01-29T02:05:44.536Z,98.35
2023-01-29T02:10:50.374Z,97.98
2023-01-29T02:15:53.941Z,97.89
2023-01-29T02:21:16.604Z,97.33
2023-01-29T02:26:51.737Z,97.11
2023-01-29T02:32:09.932Z,96.22
2023-01-29T02:37:15.022Z,94.25
2023-01-29T02:42:27.369Z,93.75
2023-01-29T02:47:37.662Z,94.18
2023-01-29T02:52:51.018Z,94.14
2023-01-29T02:57:59.262Z,93.82
2023-01-29T03:03:08.653Z,94.44
2023-01-29T03:08:17.768Z,95.11
2023-01-29T03:13:27.795Z,96.00
2023-01-29T03:18:40.750Z,95.70
2023-01-29T03:24:01.358Z,96.08
2023-01-29T03:29:23.555Z,96.32
2023-01-29T03:34:34.856Z,95.90
2023-01-29T03:39:38.481Z,96.35
2023-01-29T03:44:52.088Z,96.52
2023-01-29T03:50:01.331Z,96.45
2023-01-29T03:55:11.865Z,96.11
2023-01-29T04:00:19.820Z,96.23
2023-01-29T04:05:29.412Z,95.68
2023-01-29T04:10:37.644Z,96.27
2023-01-29T04:15:45.377Z,95.79
2023-01-29T04:20:50.689Z,95.61
2023-01-29T04:26:09.316Z,96.10
2023-01-29T04:31:14.374Z,95.39
2023-01-29T04:36:29.883Z,95.21
2023-01-29T04:41:37.841Z,95.42
2023-01-29T04:46:50.325Z,95.53
2023-01-29T04:52:03.355Z,95.00
2023-01-29T04:57:11.133Z,94.68
2023-01-29T05:02:15.099Z,95.10
2023-01-29T05:07:22.089Z,95.31
2023-01-29T05:12:30.292Z,94.64
2023-01-29T05:17:33.780Z,94.83
2023-01-29T05:22:41.115Z,94.97
2023-01-29T05:28:02.032Z,95.00
2023-01-29T05:33:06.702Z,95.50
2023-01-29T05:38:12.113Z,95.45
2023-01-29T05:43:20.352Z,95.34
2023-01-29T05:48:24.257Z,95.36
2023-01-29T05:53:30.368Z,95.20
2023-01-29T05:58:34.639Z,95.60
2023-01-29T06:03:38.014Z,96.22
2023-01-29T06:08:42.913Z,96.92
2023-01-29T06:13:47.967Z,96.65
2023-01-29T06:18:51.206Z,96.55
2023-01-29T06:23:55.944Z,96.62
2023-01-29T06:28:59.193Z,95.92
2023-01-29T06:34:02.591Z,96.17
2023-01-29T06:39:07.346Z,96.08
2023-01-29T06:44:12.514Z,95.58
2023-01-29T06:49:15.877Z,95.18
2023-01-29T06:54:20.588Z,95.33
2023-01-29T06:59:23.862Z,94.78
2023-01-29T07:04:27.301Z,94.80
2023-01-29T07:09:32.526Z,94.54
2023-01-29T07:14:35.957Z,94.21
2023-01-29T07:19:39.331Z,93.84
2023-01-29T07:24:44.009Z,94.47
2023-01-29T07:29:47.275Z,93.53
2023-01-29T07:34:50.706Z,95.04
2023-01-29T07:39:55.802Z,95.41
2023-01-29T07:44:59.197Z,95.45
2023-01-29T07:50:02.659Z,95.48
2023-01-29T07:55:08.919Z,94.67
2023-01-29T08:00:14.901Z,94.27
2023-01-29T08:05:18.599Z,93.51
2023-01-29T08:10:23.773Z,93.87
2023-01-29T08:15:27.325Z,93.08
2023-01-29T08:20:30.837Z,93.34
2023-01-29T08:25:36.168Z,92.28
2023-01-29T08:30:39.557Z,93.17
2023-01-29T08:36:19.128Z,91.97
2023-01-29T08:41:40.539Z,91.98
2023-01-29T08:46:44.018Z,91.85
2023-01-29T08:51:47.344Z,91.81
2023-01-29T08:56:52.733Z,91.28
2023-01-29T09:02:08.420Z,90.67
2023-01-29T09:07:26.535Z,89.94
2023-01-29T09:13:10.082Z,90.05
2023-01-29T09:18:28.598Z,89.90
2023-01-29T09:23:46.214Z,89.37
2023-01-29T09:28:50.978Z,89.29
2023-01-29T09:33:54.329Z,89.83
2023-01-29T09:38:58.838Z,89.62
2023-01-29T09:44:23.507Z,88.42
2023-01-29T09:49:41.825Z,88.58
2023-01-29T09:55:05.699Z,87.07
2023-01-29T10:00:22.096Z,85.94
2023-01-29T10:05:53.146Z,86.19
2023-01-29T10:11:07.295Z,86.43
2023-01-29T10:16:34.026Z,85.12
2023-01-29T10:21:55.288Z,84.48
2023-01-29T10:27:00.099Z,84.14
2023-01-29T10:32:12.376Z,84.71
2023-01-29T10:37:39.763Z,84.42
2023-01-29T10:43:01.026Z,83.42
2023-01-29T10:48:56.766Z,82.49
2023-01-29T10:54:31.339Z,82.83
2023-01-29T11:00:10.079Z,82.73
2023-01-29T11:05:23.303Z,82.71
2023-01-29T11:10:27.132Z,80.60
2023-01-29T11:15:33.907Z,78.18
2023-01-29T11:20:38.813Z,70.74
2023-01-29T11:25:53.176Z,72.53
2023-01-29T11:30:57.028Z,73.97
2023-01-29T11:36:10.824Z,74.08
2023-01-29T11:41:18.743Z,75.26
2023-01-29T11:46:22.270Z,76.02
2023-01-29T11:51:30.104Z,76.02
2023-01-29T11:56:42.319Z,77.21
2023-01-29T12:01:45.626Z,77.10
2023-01-29T12:06:53.297Z,75.84
2023-01-29T12:11:56.954Z,76.61
2023-01-29T12:17:05.507Z,76.05
2023-01-29T12:22:16.657Z,76.29
2023-01-29T12:27:26.823Z,76.98
2023-01-29T12:32:39.871Z,77.08
2023-01-29T12:37:55.753Z,78.41
2023-01-29T12:43:06.202Z,77.86
2023-01-29T12:48:12.327Z,78.77
2023-01-29T12:53:28.071Z,79.00
2023-01-29T12:58:36.888Z,79.90
2023-01-29T13:03:50.999Z,80.48
2023-01-29T13:09:00.156Z,80.93
2023-01-29T13:14:14.226Z,80.76
2023-01-29T13:19:27.117Z,82.07
2023-01-29T13:24:38.530Z,81.59
2023-01-29T13:29:44.950Z,82.24
2023-01-29T13:34:50.695Z,82.81
2023-01-29T13:39:57.132Z,83.52
2023-01-29T13:45:04.128Z,83.89
2023-01-29T13:50:10.482Z,83.71
2023-01-29T13:55:26.431Z,83.61
2023-01-29T14:01:01.375Z,84.26
2023-01-29T14:06:06.290Z,84.45
2023-01-29T14:11:37.335Z,84.71
2023-01-29T14:16:41.492Z,84.84
2023-01-29T14:21:51.604Z,85.43
2023-01-29T14:26:57.486Z,85.36
2023-01-29T14:32:10.007Z,85.84
2023-01-29T14:37:22.496Z,86.19
2023-01-29T14:42:31.130Z,86.69
2023-01-29T14:47:55.396Z,86.18
2023-01-29T14:53:04.854Z,86.94
2023-01-29T14:58:15.800Z,87.39
2023-01-29T15:03:24.032Z,87.97
2023-01-29T15:08:34.135Z,87.71
2023-01-29T15:13:43.909Z,87.77
2023-01-29T15:18:50.030Z,88.15
2023-01-29T15:24:06.184Z,87.81
2023-01-29T15:29:26.170Z,88.74
2023-01-29T15:34:29.669Z,89.00
2023-01-29T15:39:33.895Z,88.87
2023-01-29T15:44:45.601Z,89.04
2023-01-29T15:49:49.363Z,89.22
2023-01-29T15:54:53.516Z,89.72
2023-01-29T16:00:00.208Z,90.30
2023-01-29T16:05:05.159Z,90.14
2023-01-29T16:10:16.055Z,89.96
2023-01-29T16:15:32.448Z,89.66
2023-01-29T16:20:42.764Z,89.46
2023-01-29T16:25:46.545Z,89.07
2023-01-29T16:30:58.524Z,89.98
2023-01-29T16:36:05.732Z,89.93
2023-01-29T16:41:16.864Z,89.68
2023-01-29T16:46:26.458Z,89.44
2023-01-29T16:51:32.264Z,88.96
2023-01-29T16:56:36.613Z,88.52
2023-01-29T17:01:42.789Z,88.91
2023-01-29T17:06:49.451Z,89.36
2023-01-29T17:11:57.387Z,89.36
2023-01-29T17:17:07.059Z,89.00
2023-01-29T17:22:14.863Z,88.78
2023-01-29T17:27:21.079Z,88.23
2023-01-29T17:32:42.957Z,88.69
2023-01-29T17:37:48.197Z,89.61
2023-01-29T17:42:51.369Z,89.46
2023-01-29T17:47:56.382Z,90.43
2023-01-29T17:52:59.847Z,90.12
2023-01-29T17:58:03.356Z,90.04
2023-01-29T18:03:08.773Z,90.82
2023-01-29T18:08:17.873Z,90.27
2023-01-29T18:13:21.352Z,90.54
2023-01-29T18:18:26.347Z,90.74
2023-01-29T18:23:31.379Z,91.06
2023-01-29T18:28:35.020Z,91.19
2023-01-29T18:33:39.755Z,91.36
2023-01-29T18:38:43.275Z,90.87
2023-01-29T18:43:46.723Z,90.85
2023-01-29T18:48:51.597Z,91.34
2023-01-29T18:53:55.164Z,90.64
2023-01-29T18:58:58.481Z,90.79
2023-01-29T19:04:03.938Z,91.28
2023-01-29T19:09:07.300Z,91.10
2023-01-29T19:14:10.773Z,91.05
2023-01-29T19:19:15.611Z,90.70
2023-01-29T19:24:19.018Z,90.79
2023-01-29T19:29:22.851Z,90.56
2023-01-29T19:34:28.073Z,91.07
2023-01-29T19:39:33.898Z,90.97
2023-01-29T19:44:39.132Z,91.04
2023-01-29T19:49:44.280Z,90.60
2023-01-29T19:54:48.152Z,90.97
2023-01-29T19:59:51.967Z,91.22
2023-01-29T20:04:57.597Z,92.20
2023-01-29T20:10:01.028Z,92.36
2023-01-29T20:15:04.861Z,92.22
2023-01-29T20:20:11.178Z,92.43
2023-01-29T20:25:14.726Z,92.56
2023-01-29T20:30:18.683Z,92.07
2023-01-29T20:35:23.622Z,92.23
2023-01-29T20:40:27.405Z,92.94
2023-01-29T20:45:33.134Z,91.82
2023-01-29T20:50:37.955Z,92.27
2023-01-29T20:55:41.384Z,92.61
2023-01-29T21:00:46.563Z,92.49
2023-01-29T21:05:51.869Z,92.49
2023-01-29T21:10:55.385Z,92.43
2023-01-29T21:15:58.984Z,92.16
2023-01-29T21:21:03.932Z,91.88
2023-01-29T21:26:08.033Z,92.12
2023-01-29T21:31:14.545Z,91.61
2023-01-29T21:36:19.252Z,91.50
2023-01-29T21:41:43.982Z,91.91
2023-01-29T21:46:47.420Z,92.16
2023-01-29T21:51:52.424Z,91.31
2023-01-29T21:56:55.685Z,91.97
2023-01-29T22:01:59.089Z,91.53
2023-01-29T22:07:03.810Z,91.07
2023-01-29T22:12:08.959Z,91.68
2023-01-29T22:17:12.423Z,91.56
2023-01-29T22:22:18.659Z,92.33
2023-01-29T22:27:22.181Z,92.23
2023-01-29T22:32:25.549Z,91.51
2023-01-29T22:37:30.449Z,92.31
2023-01-29T22:42:33.762Z,91.73
2023-01-29T22:47:37.288Z,92.27
2023-01-29T22:52:43.462Z,91.55
2023-01-29T22:57:50.028Z,92.35
2023-01-29T23:02:53.864Z,91.94
2023-01-29T23:07:58.700Z,92.84
2023-01-29T23:13:02.099Z,92.66
2023-01-29T23:18:06.653Z,93.87
2023-01-29T23:23:11.648Z,95.03
2023-01-29T23:28:15.567Z,95.23
2023-01-29T23:33:18.913Z,94.54
2023-01-29T23:38:23.774Z,95.09
2023-01-29T23:43:27.482Z,94.18
2023-01-29T23:48:30.999Z,94.07
2023-01-29T23:53:35.683Z,95.24
2023-01-29T23:58:39.244Z,95.07
